Columbia — WDD6400 — position and weather

sailwx.info

Track history (hours):
 
Tides and Currents Weather Stations Pressure Air Temp Water Temp Dewpoint Dewpoint Depression Visibility Wind Speed Wind Dir Waves Ship Positions

Columbia

Owner: OSG Ship Management Inc., Tampa, FL. More information available from US FCC via Universal Licensing System and Coast Guard Vessel Documentation Center.

Last reported at 2015-Apr-29 02:33 UTC. Time now 2015-May-04 13:03 UTC.
Position N 27°45' W 082°31'.

Length 194 m; draft 9.4 m.

Type: Towing. MMSI: 367172440.

Date/timePositionNaut miles runAvg speedWind from/ knotsBaromVisibWave heightAir tempDewpointWater temp
2015-Apr-29 02:33N 27°45' W 082°31'9 8.9
2015-Apr-29 01:33N 27°53' W 082°26'3 2.9
2015-Apr-29 00:33N 27°56' W 082°27'0 0.4
2015-Apr-28 23:33N 27°56' W 082°27'0 0.0
2015-Apr-28 22:33N 27°56' W 082°27'0 0.0
2015-Apr-28 21:33N 27°56' W 082°27'0 0.0
2015-Apr-28 20:33N 27°56' W 082°27'0 0.0
2015-Apr-28 19:33N 27°56' W 082°27'0 0.0
2015-Apr-28 18:33N 27°56' W 082°27'0 0.0
2015-Apr-28 17:33N 27°56' W 082°27'0 0.0
2015-Apr-28 16:33N 27°56' W 082°27'0 0.0
2015-Apr-28 15:33N 27°56' W 082°27'0 0.0
2015-Apr-28 14:33N 27°56' W 082°27'0 0.0
2015-Apr-28 13:33N 27°56' W 082°27'0 0.0
2015-Apr-28 12:33N 27°56' W 082°27'0 0.0
2015-Apr-28 11:33N 27°56' W 082°27'0 0.0
2015-Apr-28 10:33N 27°56' W 082°27'0 0.0
2015-Apr-28 09:33N 27°56' W 082°27'0 0.0
2015-Apr-28 08:33N 27°56' W 082°27'0 0.0
2015-Apr-28 07:33N 27°56' W 082°27'0 0.0
2015-Apr-28 06:33N 27°56' W 082°27'0 0.0
2015-Apr-28 05:33N 27°56' W 082°27'0 0.0
2015-Apr-28 04:33N 27°56' W 082°27'0 0.0
2015-Apr-28 03:33N 27°56' W 082°27'0 0.0
2015-Apr-28 02:33N 27°56' W 082°27'0 0.0
2015-Apr-28 01:33N 27°56' W 082°27'0 0.0
2015-Apr-28 00:33N 27°56' W 082°27'0 0.4
2015-Apr-27 23:33N 27°56' W 082°27'0 0.4
2015-Apr-27 22:33N 27°56' W 082°27'6 6.5
2015-Apr-27 21:33N 27°50' W 082°27'8 7.5
2015-Apr-27 20:33N 27°44' W 082°32'  
2015-Apr-19 18:29N 27°40' W 083°33'49 9.7
2015-Apr-19 13:26N 27°38' W 082°37'910.1
2015-Apr-19 12:34N 27°45' W 082°31'9 8.9
2015-Apr-19 11:33N 27°53' W 082°26'3 2.9
2015-Apr-19 10:33N 27°56' W 082°27'0 0.2
2015-Apr-19 09:34N 27°56' W 082°27'0 0.0
2015-Apr-19 08:33N 27°56' W 082°27'0 0.0
2015-Apr-19 07:33N 27°56' W 082°27'0 0.0
2015-Apr-19 06:34N 27°56' W 082°27'0 0.0
2015-Apr-19 05:33N 27°56' W 082°27'0 0.0
2015-Apr-19 04:34N 27°56' W 082°27'0 0.0
2015-Apr-19 03:33N 27°56' W 082°27'0 0.0
2015-Apr-19 02:34N 27°56' W 082°27'  
Track history (hours):
 
Tides and Currents Weather Stations Pressure Air Temp Water Temp Dewpoint Dewpoint Depression Visibility Wind Speed Wind Dir Waves Ship Positions

Columbia

Owner: OSG Ship Management Inc., Tampa, FL. More information available from US FCC via Universal Licensing System and Coast Guard Vessel Documentation Center.

Last reported at 2015-Apr-29 02:33 UTC. Time now 2015-May-04 13:03 UTC.
Position N 27°45' W 082°31'.

Length 194 m; draft 9.4 m.

Type: Towing. MMSI: 367172440.

Date/timePositionNaut miles runAvg speedWind from/ knotsBaromVisibWave heightAir tempDewpointWater temp
2015-Apr-29 02:33N 27°45' W 082°31'9 8.9
2015-Apr-29 01:33N 27°53' W 082°26'3 2.9
2015-Apr-29 00:33N 27°56' W 082°27'0 0.4
2015-Apr-28 23:33N 27°56' W 082°27'0 0.0
2015-Apr-28 22:33N 27°56' W 082°27'0 0.0
2015-Apr-28 21:33N 27°56' W 082°27'0 0.0
2015-Apr-28 20:33N 27°56' W 082°27'0 0.0
2015-Apr-28 19:33N 27°56' W 082°27'0 0.0
2015-Apr-28 18:33N 27°56' W 082°27'0 0.0
2015-Apr-28 17:33N 27°56' W 082°27'0 0.0
2015-Apr-28 16:33N 27°56' W 082°27'0 0.0
2015-Apr-28 15:33N 27°56' W 082°27'0 0.0
2015-Apr-28 14:33N 27°56' W 082°27'0 0.0
2015-Apr-28 13:33N 27°56' W 082°27'0 0.0
2015-Apr-28 12:33N 27°56' W 082°27'0 0.0
2015-Apr-28 11:33N 27°56' W 082°27'0 0.0
2015-Apr-28 10:33N 27°56' W 082°27'0 0.0
2015-Apr-28 09:33N 27°56' W 082°27'0 0.0
2015-Apr-28 08:33N 27°56' W 082°27'0 0.0
2015-Apr-28 07:33N 27°56' W 082°27'0 0.0
2015-Apr-28 06:33N 27°56' W 082°27'0 0.0
2015-Apr-28 05:33N 27°56' W 082°27'0 0.0
2015-Apr-28 04:33N 27°56' W 082°27'0 0.0
2015-Apr-28 03:33N 27°56' W 082°27'0 0.0
2015-Apr-28 02:33N 27°56' W 082°27'0 0.0
2015-Apr-28 01:33N 27°56' W 082°27'0 0.0
2015-Apr-28 00:33N 27°56' W 082°27'0 0.4
2015-Apr-27 23:33N 27°56' W 082°27'0 0.4
2015-Apr-27 22:33N 27°56' W 082°27'6 6.5
2015-Apr-27 21:33N 27°50' W 082°27'8 7.5
2015-Apr-27 20:33N 27°44' W 082°32'  
2015-Apr-19 18:29N 27°40' W 083°33'49 9.7
2015-Apr-19 13:26N 27°38' W 082°37'910.1
2015-Apr-19 12:34N 27°45' W 082°31'9 8.9
2015-Apr-19 11:33N 27°53' W 082°26'3 2.9
2015-Apr-19 10:33N 27°56' W 082°27'0 0.2
2015-Apr-19 09:34N 27°56' W 082°27'0 0.0
2015-Apr-19 08:33N 27°56' W 082°27'0 0.0
2015-Apr-19 07:33N 27°56' W 082°27'0 0.0
2015-Apr-19 06:34N 27°56' W 082°27'0 0.0
2015-Apr-19 05:33N 27°56' W 082°27'0 0.0
2015-Apr-19 04:34N 27°56' W 082°27'0 0.0
2015-Apr-19 03:33N 27°56' W 082°27'0 0.0
2015-Apr-19 02:34N 27°56' W 082°27'  

Dump ship's entire track history